General Francisco J Mujica International Airport
MMMM : rendu visible

Aérodrome :











RETROUVEZ-NOUS SUR...

 
LOGIN :

S'inscrire | Disclaimer

   EN    FR    IT 

 









Légende :    VFR   VFR Marginal   IFR   IFR Intensif   IFR Très Intensif
Visi : 
Plafond : 
>= 8 km
>= 3000ft
5 à 8 km
1000 à 3000 ft
1500m à 5 km
500 à 1000 ft
800 à 1500m
200 à 500 ft
< 800m
< 200 ft
Symboles :   Orages  Brouillard  Fortes neiges  Fortes précipitations  Vent > 20 kt






- Altitude de l'aérodrome : 6033 ft
- Code IATA : MLM


MMMM - General Francisco J Mujica International

DERNIER METAR :
  • 040140Z 18008KT 6SM SCT030 BKN200 23/06 A3009 RMK 8/408 AC DSNT/CB/NW

METARs EXPIRÉS :
  • 040041Z 17004KT 7SM SCT030 SCT090 BKN230 24/07 A3007 RMK 8/468 HZY
  • 032350Z 19007KT 7SM SCT030 SCT090 OVC230 25/05 A3006 RMK SLP044 57010 954 8/463 HZY

TAF TAF MMMM
Valide du 04 à 00h jusqu'au 05 à 06h UTC


032313Z 0400/0506 18008KT P6SM SCT030CB BKN090 OVC230
TEMPO 0406/0408 5SM -TSRA SCT020CB
FM040800 00000KT 6SM HZ BKN090
FM041800 18010KT P6SM SKC



MET'MAP, la Météo Aéronautique d'un coup d'oeil ! - Copyright ORBIFLY Décembre 2007 - Disclaimer

ORBIFLY MET'MAP TEAM :

Programmation & Développement : Alexandra Zaïnal
Sur une idée originale de : Baudouin d'Aumeries
Assistance à la programmation : Marc-Olivier Méhu
Soutien technique & logistique : Manuel Goepfert

Contact : metmap@orbifly.com




SOURCES & CREDITS :

   NOAA       Earth
Advisory